Time;durP1;ratioP1;P1;durP2;ratioP2;P2;SDS_P1;SDS_P2;PMS_P1;PMS_P2;Temp;Humidity;BMP_temperature;BMP_pressure;BME280_temperature;BME280_humidity;BME280_pressure;Samples;Min_cycle;Max_cycle;Signal;HPM_P1;HPM_P2
2023/03/05 00:01:52;;;;;;;0.30;0.30;;;;;;;5.82;75.88;100905.41;4948958;28;20034;-50
2023/03/05 00:04:18;;;;;;;0.20;0.20;;;;;;;5.67;76.20;100911.25;4934669;29;20043;-50
2023/03/05 00:06:43;;;;;;;0.20;0.20;;;;;;;5.64;76.21;100915.31;4945685;28;20126;-50
2023/03/05 00:09:09;;;;;;;0.20;0.20;;;;;;;5.74;75.89;100914.22;4945460;28;20031;-48
2023/03/05 00:11:35;;;;;;;0.30;0.30;;;;;;;5.61;75.41;100902.63;4951708;28;20063;-48
2023/03/05 00:14:03;;;;;;;0.20;0.20;;;;;;;5.74;75.46;100898.97;4943414;28;20047;-52
2023/03/05 00:16:29;;;;;;;0.52;0.40;;;;;;;5.81;75.92;100901.94;4951285;28;20031;-48
2023/03/05 00:18:56;;;;;;;0.30;0.30;;;;;;;5.72;74.98;100895.84;4946685;29;20044;-49
2023/03/05 00:21:25;;;;;;;0.65;0.65;;;;;;;5.78;75.81;100891.13;4945017;28;20039;-51
2023/03/05 00:23:52;;;;;;;1.27;0.63;;;;;;;5.79;75.86;100895.38;4950745;28;20483;-48
2023/03/05 00:26:19;;;;;;;0.30;0.30;;;;;;;6.05;75.19;100885.44;4948388;28;20038;-50
2023/03/05 00:28:48;;;;;;;0.20;0.20;;;;;;;5.96;74.40;100890.78;4955406;28;20058;-49
2023/03/05 00:31:16;;;;;;;0.40;0.40;;;;;;;5.72;75.54;100887.81;4941687;29;20038;-51
2023/03/05 00:33:42;;;;;;;0.75;0.68;;;;;;;5.80;74.71;100883.56;4949427;28;20039;-48
2023/03/05 00:36:08;;;;;;;0.20;0.20;;;;;;;5.81;75.13;100874.44;4935342;29;20506;-50
2023/03/05 00:38:34;;;;;;;0.20;0.20;;;;;;;5.64;74.22;100885.16;4952848;28;20434;-50
2023/03/05 00:41:00;;;;;;;0.20;0.20;;;;;;;5.59;74.06;100877.31;4937319;29;20034;-50
2023/03/05 00:43:27;;;;;;;0.20;0.20;;;;;;;5.45;74.85;100886.28;4952239;28;20498;-46
2023/03/05 00:45:52;;;;;;;0.30;0.30;;;;;;;5.50;73.55;100878.09;4954814;28;20042;-50
2023/03/05 00:48:18;;;;;;;0.20;0.20;;;;;;;5.63;73.47;100872.91;4955217;29;20039;-51
2023/03/05 00:50:43;;;;;;;0.25;0.25;;;;;;;5.79;73.19;100866.00;4933996;29;20028;-55
2023/03/05 00:53:09;;;;;;;0.10;0.10;;;;;;;5.63;72.78;100864.91;4934338;29;20474;-48
2023/03/05 00:55:35;;;;;;;0.20;0.20;;;;;;;5.58;72.91;100870.38;4954637;28;20042;-48
2023/03/05 00:58:01;;;;;;;0.20;0.20;;;;;;;5.47;74.73;100864.59;4945499;28;20826;-47
2023/03/05 01:00:27;;;;;;;0.30;0.30;;;;;;;5.32;76.01;100865.84;4939336;28;20066;-50
2023/03/05 01:02:52;;;;;;;0.20;0.20;;;;;;;5.36;76.86;100866.78;4935903;29;20411;-48
2023/03/05 01:05:18;;;;;;;0.30;0.30;;;;;;;5.27;77.00;100863.34;4935941;29;20081;-51
2023/03/05 01:07:43;;;;;;;0.20;0.20;;;;;;;5.08;77.97;100857.53;4945418;28;20028;-53
2023/03/05 01:10:10;;;;;;;0.22;0.22;;;;;;;5.37;77.10;100849.69;4944210;29;20569;-49
2023/03/05 01:12:35;;;;;;;0.20;0.20;;;;;;;5.44;76.15;100855.31;4934182;29;20042;-50
2023/03/05 01:15:02;;;;;;;0.20;0.20;;;;;;;5.62;76.76;100855.31;4943961;28;20027;-53
2023/03/05 01:17:27;;;;;;;0.40;0.40;;;;;;;5.63;77.69;100854.22;4937108;29;20050;-50
2023/03/05 01:19:55;;;;;;;0.30;0.30;;;;;;;5.53;79.17;100843.84;4953958;28;20043;-49
2023/03/05 01:22:20;;;;;;;0.20;0.20;;;;;;;5.48;80.96;100842.13;4924791;29;20032;-52
2023/03/05 01:24:46;;;;;;;0.20;0.20;;;;;;;5.47;81.33;100841.34;4948919;28;20035;-48
2023/03/05 01:27:11;;;;;;;0.30;0.30;;;;;;;5.60;81.22;100844.16;4936865;29;20046;-53
2023/03/05 01:29:37;;;;;;;0.35;0.35;;;;;;;5.50;83.32;100834.59;4951392;29;20100;-48
2023/03/05 01:32:02;;;;;;;0.20;0.20;;;;;;;5.30;85.01;100830.66;4944198;29;20027;-48
2023/03/05 01:34:28;;;;;;;0.30;0.30;;;;;;;5.50;84.80;100835.38;4934374;28;20042;-49
2023/03/05 01:36:53;;;;;;;0.43;0.43;;;;;;;5.31;85.91;100839.47;4949678;28;20035;-48
2023/03/05 01:39:19;;;;;;;0.28;0.28;;;;;;;5.44;85.87;100833.16;4936862;29;20038;-53
2023/03/05 01:41:44;;;;;;;0.20;0.20;;;;;;;5.50;86.00;100835.38;4942058;28;20035;-54
2023/03/05 01:44:26;;;;;;;0.30;0.30;;;;;;;5.24;87.04;100828.47;4944444;28;20031;-51
2023/03/05 01:46:52;;;;;;;0.20;0.20;;;;;;;5.36;87.31;100823.31;4954157;28;20035;-52
2023/03/05 01:49:25;;;;;;;0.20;0.20;;;;;;;5.09;88.91;100826.28;4954080;29;20086;-49
2023/03/05 01:51:57;;;;;;;0.30;0.30;;;;;;;5.24;88.73;100807.94;4953440;29;20105;-53
2023/03/05 01:54:25;;;;;;;;;;;;;;;5.17;88.90;100807.59;4954316;28;20062;-48
2023/03/05 01:56:54;;;;;;;0.30;0.30;;;;;;;5.15;88.84;100806.34;4953934;29;19917;-49
2023/03/05 01:59:22;;;;;;;0.35;0.35;;;;;;;5.06;89.61;100808.22;4936016;29;20042;-50
2023/03/05 02:01:52;;;;;;;0.20;0.20;;;;;;;5.18;89.42;100811.06;4933339;29;20066;-48
2023/03/05 02:04:22;;;;;;;0.77;0.40;;;;;;;5.53;87.67;100811.81;4925363;28;20071;-46
2023/03/05 02:06:49;;;;;;;0.20;0.20;;;;;;;5.30;88.92;100795.97;4948055;28;20071;-47
2023/03/05 02:09:14;;;;;;;0.30;0.30;;;;;;;5.14;89.60;100807.44;4949922;29;20035;-48
2023/03/05 02:11:41;;;;;;;0.30;0.30;;;;;;;5.29;90.24;100802.41;4953497;28;20085;-51
2023/03/05 02:14:07;;;;;;;0.20;0.20;;;;;;;5.13;90.99;100795.22;4953211;28;20035;-52
2023/03/05 02:16:36;;;;;;;0.22;0.22;;;;;;;5.33;90.25;100795.34;4928169;29;20031;-49
2023/03/05 02:19:04;;;;;;;0.30;0.30;;;;;;;4.82;91.38;100794.56;4936130;29;20031;-49
2023/03/05 02:21:55;;;;;;;0.30;0.30;;;;;;;4.77;93.02;100782.16;4950430;28;20049;-52
2023/03/05 02:24:35;;;;;;;0.30;0.30;;;;;;;4.90;92.57;100780.44;4948158;28;20079;-49
2023/03/05 02:27:02;;;;;;;0.30;0.30;;;;;;;4.77;93.67;100781.38;4952679;28;20450;-48
2023/03/05 02:29:30;;;;;;;0.30;0.30;;;;;;;5.04;93.20;100779.19;4948255;29;20386;-54
2023/03/05 02:31:56;;;;;;;0.45;0.45;;;;;;;5.19;92.49;100781.38;4946260;29;20043;-50
2023/03/05 02:34:22;;;;;;;0.30;0.30;;;;;;;5.15;90.88;100766.31;4942967;28;20407;-53
2023/03/05 02:36:54;;;;;;;0.30;0.30;;;;;;;5.08;91.59;100772.13;4930321;29;20090;-50
2023/03/05 02:39:20;;;;;;;0.20;0.20;;;;;;;4.95;92.52;100761.63;4941620;29;20402;-51
2023/03/05 02:41:46;;;;;;;0.20;0.20;;;;;;;4.93;92.64;100764.59;4935614;29;20050;-51
2023/03/05 02:44:11;;;;;;;1.02;0.52;;;;;;;4.97;92.92;100754.88;4950476;29;20043;-49
2023/03/05 02:46:37;;;;;;;0.20;0.20;;;;;;;4.84;93.77;100758.47;4926638;29;20035;-50
2023/03/05 02:49:03;;;;;;;0.20;0.20;;;;;;;5.01;92.96;100755.03;4946151;29;20130;-46
2023/03/05 02:51:29;;;;;;;0.30;0.30;;;;;;;5.04;92.88;100759.72;4919407;29;20117;-48
2023/03/05 02:53:55;;;;;;;0.30;0.30;;;;;;;5.30;91.87;100758.59;4918421;28;20241;-47
2023/03/05 02:56:23;;;;;;;0.20;0.20;;;;;;;5.09;92.58;100757.66;4939286;29;20065;-48
2023/03/05 02:58:48;;;;;;;0.25;0.25;;;;;;;4.80;93.79;100752.19;4933026;29;20565;-48
2023/03/05 03:01:14;;;;;;;0.20;0.20;;;;;;;4.93;93.52;100753.94;4932454;29;20050;-49
2023/03/05 03:03:39;;;;;;;0.20;0.20;;;;;;;4.74;93.75;100750.00;4937401;29;20031;-51
2023/03/05 03:06:08;;;;;;;0.40;0.40;;;;;;;4.67;94.61;100761.13;4950533;28;20031;-53
2023/03/05 03:08:33;;;;;;;0.28;0.28;;;;;;;4.89;94.04;100747.66;4952457;29;20114;-48
2023/03/05 03:11:11;;;;;;;0.28;0.28;;;;;;;5.06;93.10;100742.31;4952658;28;20035;-50
2023/03/05 03:13:37;;;;;;;0.20;0.20;;;;;;;5.19;92.50;100730.66;4929766;29;20148;-50
2023/03/05 03:16:05;;;;;;;1.25;0.45;;;;;;;5.07;92.62;100730.50;4952177;29;20067;-50
2023/03/05 03:18:30;;;;;;;0.20;0.20;;;;;;;5.16;92.18;100731.31;4943671;29;20119;-47
2023/03/05 03:20:56;;;;;;;0.20;0.20;;;;;;;4.94;92.96;100728.81;4942450;28;20207;-49
2023/03/05 03:23:21;;;;;;;0.32;0.32;;;;;;;4.90;93.43;100727.06;4945783;29;20045;-47
2023/03/05 03:25:47;;;;;;;0.20;0.20;;;;;;;5.03;92.76;100726.16;4938337;28;20051;-49
2023/03/05 03:28:12;;;;;;;0.30;0.30;;;;;;;5.16;92.58;100722.50;4939360;28;20039;-46
2023/03/05 03:30:38;;;;;;;0.20;0.20;;;;;;;5.08;92.25;100718.75;4951691;29;20039;-47
2023/03/05 03:33:03;;;;;;;0.30;0.30;;;;;;;5.19;91.86;100708.53;4952535;28;20035;-48
2023/03/05 03:35:29;;;;;;;0.20;0.20;;;;;;;4.84;93.16;100699.00;4952020;28;20384;-49
2023/03/05 03:37:54;;;;;;;0.20;0.20;;;;;;;4.59;94.45;100703.22;4952061;28;20035;-48
2023/03/05 03:40:20;;;;;;;0.30;0.30;;;;;;;4.54;95.17;100700.72;4949826;28;20074;-48
2023/03/05 03:42:45;;;;;;;0.28;0.28;;;;;;;4.55;95.27;100702.28;4950785;29;20124;-48
2023/03/05 03:45:12;;;;;;;0.20;0.20;;;;;;;4.62;95.06;100705.28;4939007;28;20035;-49
2023/03/05 03:47:37;;;;;;;0.20;0.20;;;;;;;4.51;95.73;100709.34;4936045;29;20087;-48
2023/03/05 03:50:03;;;;;;;0.20;0.20;;;;;;;4.49;95.99;100712.31;4938421;28;20035;-47
2023/03/05 03:52:28;;;;;;;0.30;0.30;;;;;;;4.76;95.58;100707.81;4936042;29;20376;-46
2023/03/05 03:55:00;;;;;;;0.20;0.20;;;;;;;4.96;94.64;100702.59;4946042;28;20054;-50
2023/03/05 03:57:25;;;;;;;;;;;;;;;5.04;94.14;100693.81;4951184;28;20119;-47
2023/03/05 03:59:51;;;;;;;0.20;0.20;;;;;;;5.06;94.25;100706.81;4952209;28;19993;-46
2023/03/05 04:02:17;;;;;;;0.20;0.20;;;;;;;5.19;93.89;100695.19;4946453;28;20545;-46
2023/03/05 04:04:42;;;;;;;0.30;0.30;;;;;;;5.27;93.06;100692.50;4951556;28;20039;-51
2023/03/05 04:07:08;;;;;;;0.22;0.22;;;;;;;5.09;92.64;100682.19;4938449;29;20054;-48
2023/03/05 04:09:34;;;;;;;0.30;0.30;;;;;;;5.24;91.88;100687.03;4945982;28;20517;-49
2023/03/05 04:11:59;;;;;;;0.30;0.30;;;;;;;4.96;91.94;100681.25;4950385;28;20035;-51
2023/03/05 04:14:26;;;;;;;0.30;0.30;;;;;;;4.87;93.11;100685.81;4949751;28;20497;-50
2023/03/05 04:16:51;;;;;;;0.28;0.28;;;;;;;4.77;93.84;100670.13;4939817;28;20094;-49
2023/03/05 04:19:17;;;;;;;0.25;0.25;;;;;;;5.04;92.66;100675.13;4948796;28;20118;-48
2023/03/05 04:21:42;;;;;;;0.30;0.30;;;;;;;4.67;92.68;100681.13;4942989;28;20380;-51
2023/03/05 04:24:08;;;;;;;0.30;0.30;;;;;;;4.78;93.17;100674.34;4942631;28;20050;-50
2023/03/05 04:26:34;;;;;;;0.40;0.40;;;;;;;4.82;92.40;100669.97;4938311;28;20035;-53
2023/03/05 04:29:00;;;;;;;0.63;0.50;;;;;;;4.76;92.44;100668.59;4931525;29;20039;-48
2023/03/05 04:31:25;;;;;;;0.40;0.40;;;;;;;4.86;92.64;100670.16;4954947;28;20070;-46
2023/03/05 04:33:51;;;;;;;0.40;0.40;;;;;;;4.73;93.12;100671.06;4943237;29;20036;-51
2023/03/05 04:36:16;;;;;;;0.30;0.30;;;;;;;4.71;93.18;100665.28;4948135;28;20035;-52
2023/03/05 04:38:41;;;;;;;0.30;0.30;;;;;;;4.52;93.50;100670.94;4944916;28;20042;-48
2023/03/05 04:41:07;;;;;;;0.20;0.20;;;;;;;4.66;93.26;100662.78;4945887;28;20122;-48
2023/03/05 04:43:32;;;;;;;0.20;0.20;;;;;;;4.94;92.45;100672.00;4946468;28;20050;-48
2023/03/05 04:45:58;;;;;;;0.20;0.20;;;;;;;4.93;92.56;100659.75;4951734;28;20038;-50
2023/03/05 04:48:24;;;;;;;0.20;0.20;;;;;;;4.76;92.58;100657.91;4939524;29;20028;-52
2023/03/05 04:50:50;;;;;;;0.30;0.30;;;;;;;4.86;92.92;100657.56;4938235;29;20048;-48
2023/03/05 04:53:15;;;;;;;0.30;0.30;;;;;;;5.03;91.61;100659.44;4943584;28;20028;-49
2023/03/05 04:55:42;;;;;;;0.20;0.20;;;;;;;4.92;92.20;100652.84;4937962;29;20044;-49
2023/03/05 04:58:07;;;;;;;0.45;0.45;;;;;;;4.91;90.79;100632.63;4935278;28;20034;-49
2023/03/05 05:00:34;;;;;;;0.30;0.30;;;;;;;4.85;91.46;100644.56;4952475;29;20510;-49
2023/03/05 05:02:59;;;;;;;0.30;0.30;;;;;;;4.61;92.53;100645.03;4950447;29;20025;-50
2023/03/05 05:05:26;;;;;;;0.30;0.30;;;;;;;4.51;93.07;100646.16;4949263;28;20038;-52
2023/03/05 05:07:56;;;;;;;0.40;0.40;;;;;;;4.54;92.31;100637.53;4951645;28;20407;-54
2023/03/05 05:10:22;;;;;;;0.30;0.30;;;;;;;4.48;93.41;100640.66;4937263;28;20106;-48
2023/03/05 05:12:48;;;;;;;0.20;0.20;;;;;;;4.52;92.92;100629.06;4937190;28;20127;-53
2023/03/05 05:15:13;;;;;;;1.27;0.95;;;;;;;4.69;92.12;100638.13;4949409;28;20121;-53
2023/03/05 05:17:39;;;;;;;0.30;0.30;;;;;;;4.71;91.60;100634.06;4935983;28;20039;-55
2023/03/05 05:20:06;;;;;;;0.40;0.40;;;;;;;4.69;92.87;100624.81;4946525;28;20062;-50
2023/03/05 05:22:32;;;;;;;0.30;0.30;;;;;;;4.87;92.27;100632.47;4944719;28;20399;-50
2023/03/05 05:24:57;;;;;;;0.30;0.30;;;;;;;4.75;91.32;100623.53;4939961;28;20024;-53
2023/03/05 05:27:23;;;;;;;0.50;0.50;;;;;;;4.66;92.00;100620.09;4944493;28;20397;-48
2023/03/05 05:29:51;;;;;;;0.20;0.20;;;;;;;4.84;90.90;100622.41;4951144;29;20495;-49
2023/03/05 05:32:22;;;;;;;0.30;0.30;;;;;;;4.80;90.81;100618.06;4948676;29;20043;-50
2023/03/05 05:34:52;;;;;;;0.28;0.28;;;;;;;4.95;89.38;100623.69;4953122;29;20398;-51
2023/03/05 05:37:38;;;;;;;0.30;0.30;;;;;;;4.71;91.34;100627.94;4942900;28;20039;-52
2023/03/05 05:40:07;;;;;;;0.20;0.20;;;;;;;4.79;91.41;100625.28;4895222;29;20052;-51
2023/03/05 05:42:33;;;;;;;0.60;0.60;;;;;;;4.89;90.58;100618.81;4894843;29;20060;-50
2023/03/05 05:44:59;;;;;;;0.45;0.45;;;;;;;5.10;89.45;100614.38;4893948;29;20088;-49
2023/03/05 05:47:24;;;;;;;1.13;0.65;;;;;;;5.09;89.64;100618.16;4892244;29;20036;-50
2023/03/05 05:49:50;;;;;;;0.45;0.43;;;;;;;5.15;89.19;100619.53;4894613;29;20055;-50
2023/03/05 05:52:16;;;;;;;0.38;0.38;;;;;;;5.11;89.60;100611.38;4891824;29;20048;-54
2023/03/05 05:54:41;;;;;;;0.50;0.50;;;;;;;5.25;89.03;100617.28;4898287;29;20420;-50
2023/03/05 05:57:07;;;;;;;0.30;0.30;;;;;;;5.08;89.51;100624.56;4894438;29;20036;-51
2023/03/05 05:59:33;;;;;;;0.30;0.30;;;;;;;5.03;89.69;100616.75;4894488;29;20044;-51
2023/03/05 06:01:58;;;;;;;0.52;0.40;;;;;;;4.78;91.58;100621.03;4891253;29;20120;-55
2023/03/05 06:04:24;;;;;;;1.33;0.75;;;;;;;4.63;92.98;100615.41;4893947;29;20532;-48
2023/03/05 06:06:49;;;;;;;0.40;0.40;;;;;;;4.80;92.81;100616.16;4894123;29;20108;-46
2023/03/05 06:09:15;;;;;;;0.40;0.40;;;;;;;4.74;92.47;100616.66;4893383;29;20143;-50
2023/03/05 06:11:40;;;;;;;0.20;0.20;;;;;;;4.73;92.98;100612.41;4894514;29;20049;-50
2023/03/05 06:14:08;;;;;;;0.30;0.30;;;;;;;4.95;92.72;100614.88;4893731;29;20585;-49
2023/03/05 06:16:34;;;;;;;0.30;0.30;;;;;;;5.04;91.89;100623.63;4911505;29;20047;-49
2023/03/05 06:19:03;;;;;;;0.55;0.55;;;;;;;5.01;92.33;100610.94;4935380;28;20039;-52
2023/03/05 06:21:29;;;;;;;0.30;0.30;;;;;;;4.90;92.02;100610.50;4949627;28;20047;-52
2023/03/05 06:23:55;;;;;;;0.25;0.25;;;;;;;4.83;93.16;100620.06;4949132;28;20480;-51
2023/03/05 06:26:21;;;;;;;0.52;0.52;;;;;;;4.81;92.51;100620.41;4951879;29;20043;-55
2023/03/05 06:28:47;;;;;;;0.50;0.50;;;;;;;4.76;93.54;100614.44;4950526;28;20039;-51
2023/03/05 06:31:20;;;;;;;0.22;0.22;;;;;;;4.95;92.22;100609.53;4930197;29;20514;-51
2023/03/05 06:33:46;;;;;;;0.30;0.30;;;;;;;4.84;92.66;100608.31;4942211;29;20110;-51
2023/03/05 06:36:14;;;;;;;0.52;0.40;;;;;;;4.79;92.89;100619.13;4946501;28;20128;-52
2023/03/05 06:38:40;;;;;;;0.30;0.30;;;;;;;4.85;92.56;100620.53;4949167;28;20067;-48
2023/03/05 06:41:10;;;;;;;0.30;0.30;;;;;;;4.97;91.98;100615.34;4943605;28;20070;-49
2023/03/05 06:43:38;;;;;;;0.40;0.40;;;;;;;4.85;92.50;100613.34;4933610;28;20058;-47
2023/03/05 06:46:07;;;;;;;0.30;0.30;;;;;;;4.87;92.77;100616.47;4942280;28;20032;-48
2023/03/05 06:48:33;;;;;;;0.30;0.30;;;;;;;5.02;92.97;100610.63;4948484;29;20039;-50
2023/03/05 06:50:58;;;;;;;0.30;0.30;;;;;;;4.82;92.47;100611.28;4947170;28;20098;-48
2023/03/05 06:53:24;;;;;;;0.30;0.30;;;;;;;4.98;91.62;100607.03;4952681;28;20035;-53
2023/03/05 06:55:51;;;;;;;0.25;0.25;;;;;;;4.92;91.75;100610.16;4946625;28;20074;-49
2023/03/05 06:58:16;;;;;;;0.30;0.30;;;;;;;4.97;91.73;100616.13;4946663;28;20035;-48
2023/03/05 07:00:43;;;;;;;0.20;0.20;;;;;;;4.98;91.61;100616.91;4948899;29;20607;-54
2023/03/05 07:03:09;;;;;;;0.30;0.30;;;;;;;5.00;91.41;100607.47;4944523;28;20030;-49
2023/03/05 07:05:37;;;;;;;0.20;0.20;;;;;;;4.88;90.99;100615.34;4948583;29;20035;-52
2023/03/05 07:08:03;;;;;;;0.40;0.40;;;;;;;4.83;91.83;100617.41;4944625;28;20472;-51
2023/03/05 07:10:28;;;;;;;0.30;0.30;;;;;;;4.66;92.10;100615.56;4947794;28;20049;-55
2023/03/05 07:12:54;;;;;;;0.28;0.28;;;;;;;4.80;91.64;100608.16;4946270;29;20035;-48
2023/03/05 07:15:19;;;;;;;0.30;0.30;;;;;;;4.99;91.44;100613.94;4947504;28;20027;-47
2023/03/05 07:17:45;;;;;;;0.30;0.30;;;;;;;5.02;90.92;100615.94;4947397;29;20043;-49
2023/03/05 07:20:11;;;;;;;0.20;0.20;;;;;;;5.07;90.40;100623.78;4937630;29;20083;-49
2023/03/05 07:22:37;;;;;;;0.20;0.20;;;;;;;4.90;90.19;100615.81;4947039;28;20038;-47
2023/03/05 07:25:03;;;;;;;0.30;0.30;;;;;;;5.17;90.29;100607.44;4943268;28;20126;-48
2023/03/05 07:27:29;;;;;;;0.30;0.30;;;;;;;5.27;89.45;100608.97;4937316;28;20043;-51
2023/03/05 07:29:54;;;;;;;0.20;0.20;;;;;;;5.27;88.98;100609.75;4935339;29;20406;-50
2023/03/05 07:32:20;;;;;;;0.30;0.30;;;;;;;5.16;88.84;100615.75;4938215;28;20447;-54
2023/03/05 07:34:45;;;;;;;0.20;0.20;;;;;;;5.10;89.90;100611.69;4943360;28;20126;-51
2023/03/05 07:37:12;;;;;;;0.30;0.30;;;;;;;4.85;90.26;100601.88;4944162;28;20031;-50
2023/03/05 07:39:37;;;;;;;0.20;0.20;;;;;;;5.00;90.19;100610.16;4944915;29;20394;-52
2023/03/05 07:42:03;;;;;;;0.20;0.20;;;;;;;5.08;89.76;100598.69;4944630;29;20040;-50
2023/03/05 07:44:45;;;;;;;0.30;0.30;;;;;;;5.35;89.66;100598.25;4933852;29;20478;-54
2023/03/05 07:47:11;;;;;;;0.30;0.30;;;;;;;5.41;88.41;100596.97;4944338;29;20027;-52
2023/03/05 07:49:38;;;;;;;0.20;0.20;;;;;;;5.33;88.61;100594.34;4944686;29;20109;-50
2023/03/05 07:52:05;;;;;;;0.30;0.30;;;;;;;5.49;89.82;100593.50;4936015;29;20119;-49
2023/03/05 07:54:30;;;;;;;0.20;0.20;;;;;;;5.64;88.22;100586.00;4936681;28;20040;-48
2023/03/05 07:56:56;;;;;;;0.20;0.20;;;;;;;5.67;87.75;100586.13;4944798;29;20399;-52
2023/03/05 07:59:21;;;;;;;0.25;0.25;;;;;;;5.59;86.21;100592.34;4934476;29;20106;-47
2023/03/05 08:01:47;;;;;;;0.20;0.20;;;;;;;5.33;88.21;100586.31;4949916;28;20043;-50
2023/03/05 08:04:12;;;;;;;0.20;0.20;;;;;;;5.43;88.48;100594.78;4940970;28;20118;-46
2023/03/05 08:06:40;;;;;;;0.20;0.20;;;;;;;5.73;87.39;100587.53;4945592;28;20104;-50
2023/03/05 08:09:05;;;;;;;0.20;0.20;;;;;;;5.99;85.82;100579.38;4951031;28;20082;-53
2023/03/05 08:11:31;;;;;;;0.20;0.20;;;;;;;6.20;85.46;100588.97;4950834;28;20059;-52
2023/03/05 08:13:58;;;;;;;0.32;0.32;;;;;;;6.11;84.47;100579.44;4948174;28;20039;-53
2023/03/05 08:16:24;;;;;;;0.20;0.20;;;;;;;5.93;85.06;100578.78;4950511;29;20519;-48
2023/03/05 08:18:54;;;;;;;0.20;0.20;;;;;;;6.00;85.27;100568.34;4951760;28;20446;-53
2023/03/05 08:21:25;;;;;;;0.28;0.28;;;;;;;5.87;85.62;100568.59;4950742;28;20128;-56
2023/03/05 08:23:51;;;;;;;0.50;0.50;;;;;;;5.97;84.76;100569.00;4948183;28;20174;-49
2023/03/05 08:26:20;;;;;;;0.20;0.20;;;;;;;6.22;83.07;100564.56;4948020;29;20118;-49
2023/03/05 08:28:46;;;;;;;0.22;0.22;;;;;;;6.09;82.15;100561.06;4941979;28;20032;-49
2023/03/05 08:31:12;;;;;;;0.20;0.20;;;;;;;6.05;82.83;100562.03;4948811;28;20035;-50
2023/03/05 08:33:39;;;;;;;0.30;0.30;;;;;;;6.07;81.40;100562.50;4943517;28;20082;-47
2023/03/05 08:36:05;;;;;;;0.20;0.20;;;;;;;6.17;81.99;100562.91;4945024;28;20390;-47
2023/03/05 08:38:30;;;;;;;0.30;0.30;;;;;;;6.46;81.96;100556.66;4945787;29;20446;-49
2023/03/05 08:40:56;;;;;;;0.40;0.40;;;;;;;6.41;80.60;100559.50;4943736;28;20099;-50
2023/03/05 08:43:21;;;;;;;0.20;0.20;;;;;;;6.58;80.10;100564.69;4945752;28;20043;-49
2023/03/05 08:45:48;;;;;;;0.20;0.20;;;;;;;6.45;80.35;100555.06;4953430;28;20027;-49
2023/03/05 08:48:14;;;;;;;0.25;0.25;;;;;;;6.46;80.17;100558.53;4945395;29;20045;-53
2023/03/05 08:50:39;;;;;;;0.20;0.20;;;;;;;6.21;79.78;100549.66;4940194;29;20023;-48
2023/03/05 08:53:05;;;;;;;0.77;0.77;;;;;;;6.44;79.50;100548.19;4921313;29;20032;-47
2023/03/05 08:55:31;;;;;;;0.30;0.30;;;;;;;6.70;78.89;100559.38;4935899;29;20529;-50
2023/03/05 08:57:56;;;;;;;2.60;0.60;;;;;;;6.74;79.23;100549.59;4946668;28;20142;-49
2023/03/05 09:00:22;;;;;;;0.20;0.20;;;;;;;6.72;78.64;100551.81;4935170;29;20020;-49
2023/03/05 09:02:47;;;;;;;0.30;0.30;;;;;;;6.71;78.12;100555.63;4941956;28;20082;-50
2023/03/05 09:05:13;;;;;;;0.30;0.30;;;;;;;6.79;77.96;100545.94;4949988;28;20534;-49
2023/03/05 09:07:38;;;;;;;0.20;0.20;;;;;;;7.05;77.15;100541.84;4945706;28;20494;-51
2023/03/05 09:10:05;;;;;;;0.20;0.20;;;;;;;7.31;74.72;100541.50;4946391;28;20469;-48
2023/03/05 09:12:30;;;;;;;0.20;0.20;;;;;;;7.06;75.05;100540.72;4952756;28;20097;-48
2023/03/05 09:14:56;;;;;;;0.57;0.57;;;;;;;7.27;75.01;100543.28;4950692;28;20027;-49
2023/03/05 09:17:22;;;;;;;0.20;0.20;;;;;;;7.38;72.66;100547.09;4954123;28;20522;-48
2023/03/05 09:19:48;;;;;;;0.40;0.40;;;;;;;7.66;71.93;100547.19;4953860;28;20035;-50
2023/03/05 09:22:14;;;;;;;0.55;0.38;;;;;;;7.64;70.74;100541.38;4953451;28;20534;-49
2023/03/05 09:24:40;;;;;;;3.90;0.43;;;;;;;7.60;70.28;100543.16;4948307;28;20024;-54
2023/03/05 09:27:05;;;;;;;0.20;0.20;;;;;;;7.48;70.84;100543.16;4944538;29;20038;-51
2023/03/05 09:29:31;;;;;;;0.20;0.20;;;;;;;7.43;71.29;100533.47;4942490;28;20050;-50
2023/03/05 09:31:56;;;;;;;0.40;0.40;;;;;;;7.67;71.34;100535.31;4940713;29;20450;-50
2023/03/05 09:34:22;;;;;;;0.20;0.20;;;;;;;7.78;71.72;100533.75;4943629;28;20451;-48
2023/03/05 09:36:48;;;;;;;0.17;0.17;;;;;;;7.91;70.16;100530.72;4951547;29;20031;-53
2023/03/05 09:39:15;;;;;;;0.68;0.50;;;;;;;8.02;67.67;100531.00;4950667;28;20034;-54
2023/03/05 09:41:46;;;;;;;0.30;0.30;;;;;;;8.11;67.47;100537.78;4952653;29;20435;-51
2023/03/05 09:44:14;;;;;;;0.40;0.40;;;;;;;8.00;68.33;100530.56;4949903;28;20027;-51
2023/03/05 09:46:55;;;;;;;0.20;0.20;;;;;;;8.40;67.26;100528.63;4951977;28;20059;-49
2023/03/05 09:49:49;;;;;;;0.43;0.30;;;;;;;8.40;66.33;100517.91;4950585;28;20031;-51
2023/03/05 09:52:42;;;;;;;0.20;0.20;;;;;;;8.54;64.91;100529.00;4952518;28;20082;-48
2023/03/05 09:55:39;;;;;;;0.10;0.10;;;;;;;8.74;63.41;100519.97;4931671;28;20051;-52
2023/03/05 09:58:16;;;;;;;0.13;0.13;;;;;;;9.00;61.23;100520.22;4945462;28;20394;-49
2023/03/05 10:00:56;;;;;;;0.20;0.20;;;;;;;9.24;59.11;100510.41;4952794;28;20039;-50
2023/03/05 10:03:29;;;;;;;0.20;0.20;;;;;;;9.12;57.60;100513.22;4949038;28;20067;-48
2023/03/05 10:05:55;;;;;;;0.20;0.20;;;;;;;8.89;57.60;100521.09;4948415;28;20115;-48
2023/03/05 10:08:24;;;;;;;0.20;0.20;;;;;;;8.71;58.48;100519.88;4950770;28;20118;-49
2023/03/05 10:10:53;;;;;;;0.10;0.10;;;;;;;8.61;58.09;100523.06;4953617;29;20042;-48
2023/03/05 10:13:31;;;;;;;0.20;0.20;;;;;;;8.51;59.32;100507.47;4952930;29;20043;-47
2023/03/05 10:16:15;;;;;;;0.10;0.10;;;;;;;8.01;62.52;100522.16;4950123;28;20419;-50
2023/03/05 10:18:59;;;;;;;6.97;0.52;;;;;;;7.91;64.13;100517.31;4947552;28;20034;-51
2023/03/05 10:21:44;;;;;;;0.10;0.10;;;;;;;7.98;63.28;100512.13;4933820;29;20040;-48
2023/03/05 10:24:18;;;;;;;0.10;0.10;;;;;;;8.16;60.72;100508.06;4934980;28;20361;-50
2023/03/05 10:27:07;;;;;;;0.10;0.10;;;;;;;8.09;60.40;100515.13;4949416;29;20035;-53
2023/03/05 10:29:48;;;;;;;2.10;0.45;;;;;;;7.71;61.54;100514.78;4947841;29;20094;-50
2023/03/05 10:32:46;;;;;;;0.20;0.20;;;;;;;8.00;59.70;100517.16;4936446;29;20398;-48
2023/03/05 10:35:52;;;;;;;0.10;0.10;;;;;;;7.59;60.55;100502.19;4918968;28;20483;-49
2023/03/05 10:38:46;;;;;;;0.15;0.15;;;;;;;7.32;62.80;100515.53;4942616;29;20471;-49
2023/03/05 10:41:32;;;;;;;0.10;0.10;;;;;;;7.51;63.18;100511.13;4910464;29;20051;-51
2023/03/05 10:44:03;;;;;;;0.20;0.20;;;;;;;7.80;62.72;100500.13;4930972;29;20091;-48
2023/03/05 10:46:36;;;;;;;0.47;0.40;;;;;;;8.09;61.92;100507.84;4941386;29;20082;-52
2023/03/05 10:49:14;;;;;;;0.20;0.20;;;;;;;8.17;63.32;100498.88;4937497;29;20063;-51
2023/03/05 10:51:43;;;;;;;0.20;0.20;;;;;;;8.33;62.89;100493.56;4941748;29;20461;-49
2023/03/05 10:54:14;;;;;;;0.20;0.20;;;;;;;8.66;62.56;100495.97;4936882;29;20139;-51
2023/03/05 10:56:39;;;;;;;0.20;0.20;;;;;;;8.75;62.60;100491.97;4941159;28;20062;-48
2023/03/05 10:59:05;;;;;;;0.15;0.15;;;;;;;8.79;62.86;100497.44;4950083;29;20394;-48
2023/03/05 11:01:33;;;;;;;0.20;0.20;;;;;;;8.84;62.68;100489.13;4950275;29;20488;-46
2023/03/05 11:03:59;;;;;;;0.13;0.13;;;;;;;9.03;62.52;100481.16;4951725;28;20043;-48
2023/03/05 11:06:42;;;;;;;0.10;0.10;;;;;;;9.50;61.96;100479.16;4948051;28;20042;-49
2023/03/05 11:09:31;;;;;;;0.22;0.22;;;;;;;9.85;61.92;100479.13;4937603;29;20493;-50
2023/03/05 11:12:05;;;;;;;0.10;0.10;;;;;;;10.00;60.07;100475.56;4938914;28;20090;-50
2023/03/05 11:14:32;;;;;;;0.10;0.10;;;;;;;10.01;58.91;100477.91;4946212;28;20139;-47
2023/03/05 11:17:22;;;;;;;1.15;0.45;;;;;;;9.98;57.78;100456.31;4952291;28;20035;-49
2023/03/05 11:19:47;;;;;;;0.10;0.10;;;;;;;9.99;58.13;100457.88;4952572;29;20034;-47
2023/03/05 11:22:21;;;;;;;0.20;0.20;;;;;;;10.10;57.26;100450.81;4951197;28;20042;-48
2023/03/05 11:25:14;;;;;;;0.17;0.17;;;;;;;9.90;58.43;100451.94;4951969;28;20039;-51
2023/03/05 11:27:47;;;;;;;0.10;0.10;;;;;;;9.43;59.77;100449.44;4951381;28;20050;-47
2023/03/05 11:30:24;;;;;;;0.10;0.10;;;;;;;9.21;60.73;100460.84;4950752;28;20030;-49
2023/03/05 11:33:05;;;;;;;0.10;0.10;;;;;;;9.24;60.25;100445.94;4949683;28;20038;-50
2023/03/05 11:35:34;;;;;;;0.20;0.20;;;;;;;9.09;60.14;100448.31;4949849;28;20085;-50
2023/03/05 11:38:02;;;;;;;0.10;0.10;;;;;;;8.58;60.87;100440.53;4950427;29;20390;-47
2023/03/05 11:40:31;;;;;;;0.10;0.10;;;;;;;8.63;61.25;100435.69;4952175;29;20031;-50